sensor_id;sensor_type;location;lat;lon;timestamp;pressure;altitude;pressure_sealevel;temperature;humidity
38033;BME280;23841;48.524;1.342;2022-09-09T00:02:18;98619.72;;;20.60;nan
38033;BME280;23841;48.524;1.342;2022-09-09T00:04:53;98673.91;;;20.57;nan
38033;BME280;23841;48.524;1.342;2022-09-09T00:07:50;98615.00;;;20.51;nan
38033;BME280;23841;48.524;1.342;2022-09-09T00:10:39;98604.59;;;20.58;nan
38033;BME280;23841;48.524;1.342;2022-09-09T00:21:17;98620.81;;;20.58;nan
38033;BME280;23841;48.524;1.342;2022-09-09T00:23:51;98596.75;;;20.55;nan
38033;BME280;23841;48.524;1.342;2022-09-09T00:29:19;98585.97;;;20.55;nan
38033;BME280;23841;48.524;1.342;2022-09-09T00:31:48;98547.31;;;20.30;nan
38033;BME280;23841;48.524;1.342;2022-09-09T00:34:22;98607.00;;;20.50;nan
38033;BME280;23841;48.524;1.342;2022-09-09T00:36:50;98609.38;;;20.54;nan
38033;BME280;23841;48.524;1.342;2022-09-09T00:39:42;98622.75;;;20.56;nan
38033;BME280;23841;48.524;1.342;2022-09-09T00:44:52;98624.69;;;20.54;nan
38033;BME280;23841;48.524;1.342;2022-09-09T00:47:38;98625.78;;;20.51;nan
38033;BME280;23841;48.524;1.342;2022-09-09T00:50:28;98613.28;;;20.50;nan
38033;BME280;23841;48.524;1.342;2022-09-09T00:58:15;98602.50;;;20.50;nan
38033;BME280;23841;48.524;1.342;2022-09-09T01:00:47;98614.25;;;20.49;nan
38033;BME280;23841;48.524;1.342;2022-09-09T01:06:32;98601.63;;;20.50;nan
38033;BME280;23841;48.524;1.342;2022-09-09T01:09:16;98581.00;;;20.49;nan
38033;BME280;23841;48.524;1.342;2022-09-09T01:17:04;98574.88;;;20.46;nan
38033;BME280;23841;48.524;1.342;2022-09-09T01:22:17;98596.44;;;20.46;nan
38033;BME280;23841;48.524;1.342;2022-09-09T01:27:32;98576.81;;;20.44;nan
38033;BME280;23841;48.524;1.342;2022-09-09T01:29:59;98580.50;;;20.43;nan
38033;BME280;23841;48.524;1.342;2022-09-09T01:38:05;98621.94;;;20.42;nan
38033;BME280;23841;48.524;1.342;2022-09-09T01:40:31;98589.44;;;20.44;nan
38033;BME280;23841;48.524;1.342;2022-09-09T01:42:57;98589.56;;;20.42;nan
38033;BME280;23841;48.524;1.342;2022-09-09T01:45:23;98570.78;;;20.41;nan
38033;BME280;23841;48.524;1.342;2022-09-09T01:47:51;98577.03;;;20.41;nan
38033;BME280;23841;48.524;1.342;2022-09-09T01:50:17;98579.75;;;20.41;nan
38033;BME280;23841;48.524;1.342;2022-09-09T01:52:45;98589.56;;;20.42;nan
38033;BME280;23841;48.524;1.342;2022-09-09T01:55:12;98360.91;;;-10.44;nan
38033;BME280;23841;48.524;1.342;2022-09-09T02:00:25;98593.22;;;20.41;nan
38033;BME280;23841;48.524;1.342;2022-09-09T02:03:20;98567.56;;;20.36;nan
38033;BME280;23841;48.524;1.342;2022-09-09T02:06:10;98584.41;;;20.39;nan
38033;BME280;23841;48.524;1.342;2022-09-09T02:08:46;98619.50;;;20.26;nan
38033;BME280;23841;48.524;1.342;2022-09-09T02:13:39;98567.47;;;20.37;nan
38033;BME280;23841;48.524;1.342;2022-09-09T02:19:00;98566.59;;;20.37;nan
38033;BME280;23841;48.524;1.342;2022-09-09T02:21:28;98637.91;;;20.33;nan
38033;BME280;23841;48.524;1.342;2022-09-09T02:23:55;98572.13;;;20.35;nan
38033;BME280;23841;48.524;1.342;2022-09-09T02:26:23;98580.22;;;20.35;nan
38033;BME280;23841;48.524;1.342;2022-09-09T02:28:50;98583.88;;;20.34;nan
38033;BME280;23841;48.524;1.342;2022-09-09T02:31:18;98608.03;;;20.36;nan
38033;BME280;23841;48.524;1.342;2022-09-09T02:33:52;98573.94;;;20.35;nan
38033;BME280;23841;48.524;1.342;2022-09-09T02:36:22;98564.25;;;20.32;nan
38033;BME280;23841;48.524;1.342;2022-09-09T02:38:49;98565.00;;;20.34;nan
38033;BME280;23841;48.524;1.342;2022-09-09T02:41:24;98572.53;;;20.29;nan
38033;BME280;23841;48.524;1.342;2022-09-09T02:43:51;98579.44;;;20.33;nan
38033;BME280;23841;48.524;1.342;2022-09-09T02:54:21;98573.19;;;20.33;nan
38033;BME280;23841;48.524;1.342;2022-09-09T02:56:53;98562.53;;;20.31;nan
38033;BME280;23841;48.524;1.342;2022-09-09T02:59:22;98550.97;;;20.29;nan
38033;BME280;23841;48.524;1.342;2022-09-09T03:04:13;98564.38;;;20.31;nan
38033;BME280;23841;48.524;1.342;2022-09-09T03:06:38;98550.97;;;20.29;nan
38033;BME280;23841;48.524;1.342;2022-09-09T03:11:29;98549.41;;;20.26;nan
38033;BME280;23841;48.524;1.342;2022-09-09T03:13:55;98548.41;;;20.27;nan
38033;BME280;23841;48.524;1.342;2022-09-09T03:16:22;98527.28;;;20.21;nan
38033;BME280;23841;48.524;1.342;2022-09-09T03:18:47;98542.09;;;20.16;nan
38033;BME280;23841;48.524;1.342;2022-09-09T03:21:13;98576.25;;;20.28;nan
38033;BME280;23841;48.524;1.342;2022-09-09T03:23:38;98535.81;;;20.15;nan
38033;BME280;23841;48.524;1.342;2022-09-09T03:26:04;98563.72;;;20.27;nan
38033;BME280;23841;48.524;1.342;2022-09-09T03:28:29;98548.63;;;20.24;nan
38033;BME280;23841;48.524;1.342;2022-09-09T03:30:59;98585.00;;;20.19;nan
38033;BME280;23841;48.524;1.342;2022-09-09T03:33:25;98550.41;;;20.12;nan
38033;BME280;23841;48.524;1.342;2022-09-09T03:35:50;98589.06;;;20.24;nan
38033;BME280;23841;48.524;1.342;2022-09-09T03:38:16;98562.97;;;20.25;nan
38033;BME280;23841;48.524;1.342;2022-09-09T03:40:52;98556.72;;;20.24;nan
38033;BME280;23841;48.524;1.342;2022-09-09T03:43:22;98574.75;;;20.24;nan
38033;BME280;23841;48.524;1.342;2022-09-09T03:45:48;98552.41;;;20.22;nan
38033;BME280;23841;48.524;1.342;2022-09-09T03:48:15;98599.66;;;20.15;nan
38033;BME280;23841;48.524;1.342;2022-09-09T03:53:14;98592.13;;;20.20;nan
38033;BME280;23841;48.524;1.342;2022-09-09T03:55:46;98538.06;;;20.21;nan
38033;BME280;23841;48.524;1.342;2022-09-09T03:58:16;98559.88;;;20.05;nan
38033;BME280;23841;48.524;1.342;2022-09-09T04:00:50;98550.78;;;20.19;nan
38033;BME280;23841;48.524;1.342;2022-09-09T04:03:17;98548.97;;;20.20;nan
38033;BME280;23841;48.524;1.342;2022-09-09T04:08:08;98509.19;;;20.10;nan
38033;BME280;23841;48.524;1.342;2022-09-09T04:10:34;98527.41;;;20.20;nan
38033;BME280;23841;48.524;1.342;2022-09-09T04:13:05;98534.22;;;20.12;nan
38033;BME280;23841;48.524;1.342;2022-09-09T04:15:31;98540.00;;;20.19;nan
38033;BME280;23841;48.524;1.342;2022-09-09T04:17:56;98553.59;;;20.18;nan
38033;BME280;23841;48.524;1.342;2022-09-09T04:20:22;98532.91;;;20.18;nan
38033;BME280;23841;48.524;1.342;2022-09-09T04:22:48;98523.09;;;20.17;nan
38033;BME280;23841;48.524;1.342;2022-09-09T04:25:13;98524.06;;;20.16;nan
38033;BME280;23841;48.524;1.342;2022-09-09T04:27:39;98620.69;;;20.09;nan
38033;BME280;23841;48.524;1.342;2022-09-09T04:30:05;98555.56;;;20.16;nan
38033;BME280;23841;48.524;1.342;2022-09-09T04:32:33;98534.00;;;20.16;nan
38033;BME280;23841;48.524;1.342;2022-09-09T04:34:58;98535.50;;;20.07;nan
38033;BME280;23841;48.524;1.342;2022-09-09T04:37:24;98598.69;;;20.16;nan
38033;BME280;23841;48.524;1.342;2022-09-09T04:39:50;98534.97;;;20.15;nan
38033;BME280;23841;48.524;1.342;2022-09-09T04:42:15;98530.53;;;20.13;nan
38033;BME280;23841;48.524;1.342;2022-09-09T04:44:43;98557.50;;;20.13;nan
38033;BME280;23841;48.524;1.342;2022-09-09T04:47:09;98545.88;;;20.13;nan
38033;BME280;23841;48.524;1.342;2022-09-09T04:49:35;98539.63;;;20.12;nan
38033;BME280;23841;48.524;1.342;2022-09-09T04:52:02;98551.91;;;20.17;nan
38033;BME280;23841;48.524;1.342;2022-09-09T04:54:28;98574.75;;;20.11;nan
38033;BME280;23841;48.524;1.342;2022-09-09T04:56:54;98567.53;;;20.11;nan
38033;BME280;23841;48.524;1.342;2022-09-09T04:59:20;98557.72;;;20.10;nan
38033;BME280;23841;48.524;1.342;2022-09-09T05:01:47;98586.41;;;20.11;nan
38033;BME280;23841;48.524;1.342;2022-09-09T05:04:12;98571.09;;;20.12;nan
38033;BME280;23841;48.524;1.342;2022-09-09T05:06:40;98637.94;;;20.07;nan
38033;BME280;23841;48.524;1.342;2022-09-09T05:09:06;98569.47;;;20.09;nan
38033;BME280;23841;48.524;1.342;2022-09-09T05:11:32;98571.22;;;20.10;nan
38033;BME280;23841;48.524;1.342;2022-09-09T05:13:59;98556.69;;;20.00;nan
38033;BME280;23841;48.524;1.342;2022-09-09T05:16:25;98573.06;;;20.10;nan
38033;BME280;23841;48.524;1.342;2022-09-09T05:18:50;98561.63;;;20.06;nan
38033;BME280;23841;48.524;1.342;2022-09-09T05:21:17;98561.38;;;20.09;nan
38033;BME280;23841;48.524;1.342;2022-09-09T05:23:44;98576.72;;;20.09;nan
38033;BME280;23841;48.524;1.342;2022-09-09T05:26:13;98553.31;;;20.09;nan
38033;BME280;23841;48.524;1.342;2022-09-09T05:28:39;98586.66;;;20.08;nan
38033;BME280;23841;48.524;1.342;2022-09-09T05:31:07;98616.31;;;20.08;nan
38033;BME280;23841;48.524;1.342;2022-09-09T05:33:38;98583.19;;;20.06;nan
38033;BME280;23841;48.524;1.342;2022-09-09T05:36:11;98651.53;;;20.05;nan
38033;BME280;23841;48.524;1.342;2022-09-09T05:38:38;98565.75;;;19.99;nan
38033;BME280;23841;48.524;1.342;2022-09-09T05:41:05;98647.88;;;20.06;nan
38033;BME280;23841;48.524;1.342;2022-09-09T05:43:31;98634.50;;;20.05;nan
38033;BME280;23841;48.524;1.342;2022-09-09T05:48:31;98600.66;;;20.01;nan
38033;BME280;23841;48.524;1.342;2022-09-09T05:50:58;98583.41;;;20.03;nan
38033;BME280;23841;48.524;1.342;2022-09-09T05:53:24;98601.31;;;20.04;nan
38033;BME280;23841;48.524;1.342;2022-09-09T05:55:50;98573.38;;;20.05;nan
38033;BME280;23841;48.524;1.342;2022-09-09T05:58:15;98585.56;;;19.98;nan
38033;BME280;23841;48.524;1.342;2022-09-09T06:00:42;98625.69;;;20.03;nan
38033;BME280;23841;48.524;1.342;2022-09-09T06:03:11;98587.06;;;20.02;nan
38033;BME280;23841;48.524;1.342;2022-09-09T06:05:36;98569.63;;;19.95;nan
38033;BME280;23841;48.524;1.342;2022-09-09T06:08:02;98586.09;;;20.03;nan
38033;BME280;23841;48.524;1.342;2022-09-09T06:10:28;98638.19;;;19.91;nan
38033;BME280;23841;48.524;1.342;2022-09-09T06:12:53;98605.94;;;20.02;nan
38033;BME280;23841;48.524;1.342;2022-09-09T06:15:19;98587.97;;;20.03;nan
38033;BME280;23841;48.524;1.342;2022-09-09T06:17:44;98632.91;;;20.02;nan
38033;BME280;23841;48.524;1.342;2022-09-09T06:20:10;98615.00;;;20.01;nan
38033;BME280;23841;48.524;1.342;2022-09-09T06:25:01;98628.59;;;20.00;nan
38033;BME280;23841;48.524;1.342;2022-09-09T06:27:27;98587.19;;;20.01;nan
38033;BME280;23841;48.524;1.342;2022-09-09T06:29:53;98574.94;;;19.84;nan
38033;BME280;23841;48.524;1.342;2022-09-09T06:32:19;98608.88;;;19.99;nan
38033;BME280;23841;48.524;1.342;2022-09-09T06:34:44;98584.59;;;19.99;nan
38033;BME280;23841;48.524;1.342;2022-09-09T06:37:10;98609.09;;;19.96;nan
38033;BME280;23841;48.524;1.342;2022-09-09T06:39:35;98632.16;;;20.00;nan
38033;BME280;23841;48.524;1.342;2022-09-09T06:42:01;98605.22;;;20.00;nan
38033;BME280;23841;48.524;1.342;2022-09-09T06:44:26;98589.03;;;20.00;nan
38033;BME280;23841;48.524;1.342;2022-09-09T06:46:52;98595.50;;;19.98;nan
38033;BME280;23841;48.524;1.342;2022-09-09T06:49:18;98641.44;;;19.96;nan
38033;BME280;23841;48.524;1.342;2022-09-09T06:51:43;98587.41;;;19.98;nan
38033;BME280;23841;48.524;1.342;2022-09-09T06:54:10;98600.91;;;19.98;nan
38033;BME280;23841;48.524;1.342;2022-09-09T06:56:38;98632.34;;;19.97;nan
38033;BME280;23841;48.524;1.342;2022-09-09T06:59:08;98609.81;;;19.98;nan
38033;BME280;23841;48.524;1.342;2022-09-09T07:01:36;98631.28;;;20.00;nan
38033;BME280;23841;48.524;1.342;2022-09-09T07:04:03;98622.03;;;19.91;nan
38033;BME280;23841;48.524;1.342;2022-09-09T07:06:35;98624.28;;;19.97;nan
38033;BME280;23841;48.524;1.342;2022-09-09T07:09:04;98604.34;;;19.87;nan
38033;BME280;23841;48.524;1.342;2022-09-09T07:11:32;98625.25;;;19.96;nan
38033;BME280;23841;48.524;1.342;2022-09-09T07:13:58;98625.25;;;19.96;nan
38033;BME280;23841;48.524;1.342;2022-09-09T07:16:24;98622.56;;;19.96;nan
38033;BME280;23841;48.524;1.342;2022-09-09T07:18:51;98606.50;;;19.94;nan
38033;BME280;23841;48.524;1.342;2022-09-09T07:21:18;98617.28;;;19.94;nan
38033;BME280;23841;48.524;1.342;2022-09-09T07:23:44;98628.91;;;19.95;nan
38033;BME280;23841;48.524;1.342;2022-09-09T07:26:11;98621.78;;;19.94;nan
38033;BME280;23841;48.524;1.342;2022-09-09T07:28:37;98646.94;;;19.94;nan
38033;BME280;23841;48.524;1.342;2022-09-09T07:31:04;98639.69;;;19.95;nan
38033;BME280;23841;48.524;1.342;2022-09-09T07:33:32;98631.50;;;19.97;nan
38033;BME280;23841;48.524;1.342;2022-09-09T07:36:23;98645.09;;;19.95;nan
38033;BME280;23841;48.524;1.342;2022-09-09T07:38:51;98627.19;;;19.94;nan
38033;BME280;23841;48.524;1.342;2022-09-09T07:41:21;98643.34;;;19.94;nan
38033;BME280;23841;48.524;1.342;2022-09-09T07:43:48;98639.94;;;19.92;nan
38033;BME280;23841;48.524;1.342;2022-09-09T07:46:16;98645.09;;;19.95;nan
38033;BME280;23841;48.524;1.342;2022-09-09T07:48:50;98628.91;;;19.95;nan
38033;BME280;23841;48.524;1.342;2022-09-09T07:51:30;98644.03;;;19.98;nan
38033;BME280;23841;48.524;1.342;2022-09-09T07:54:00;98644.31;;;19.93;nan
38033;BME280;23841;48.524;1.342;2022-09-09T07:56:27;98652.41;;;19.93;nan
38033;BME280;23841;48.524;1.342;2022-09-09T07:58:55;98655.22;;;19.91;nan
38033;BME280;23841;48.524;1.342;2022-09-09T08:01:23;98659.75;;;19.91;nan
38033;BME280;23841;48.524;1.342;2022-09-09T08:03:58;98595.28;;;19.88;nan
38033;BME280;23841;48.524;1.342;2022-09-09T08:06:28;98652.53;;;19.91;nan
38033;BME280;23841;48.524;1.342;2022-09-09T08:08:54;98627.41;;;19.91;nan
38033;BME280;23841;48.524;1.342;2022-09-09T08:11:23;98645.22;;;19.93;nan
38033;BME280;23841;48.524;1.342;2022-09-09T08:13:50;98672.28;;;19.92;nan
38033;BME280;23841;48.524;1.342;2022-09-09T08:16:18;98652.41;;;19.93;nan
38033;BME280;23841;48.524;1.342;2022-09-09T08:18:47;98666.88;;;19.92;nan
38033;BME280;23841;48.524;1.342;2022-09-09T08:21:19;98673.97;;;19.93;nan
38033;BME280;23841;48.524;1.342;2022-09-09T08:23:45;98679.47;;;19.91;nan
38033;BME280;23841;48.524;1.342;2022-09-09T08:26:13;98521.97;;;18.92;nan
38033;BME280;23841;48.524;1.342;2022-09-09T08:28:40;98691.13;;;19.92;nan
38033;BME280;23841;48.524;1.342;2022-09-09T08:31:10;98692.84;;;19.93;nan
38033;BME280;23841;48.524;1.342;2022-09-09T08:33:36;98703.72;;;19.91;nan
38033;BME280;23841;48.524;1.342;2022-09-09T08:36:04;98693.84;;;19.92;nan
38033;BME280;23841;48.524;1.342;2022-09-09T08:38:30;98668.47;;;19.82;nan
38033;BME280;23841;48.524;1.342;2022-09-09T08:41:03;98681.66;;;19.86;nan
38033;BME280;23841;48.524;1.342;2022-09-09T08:43:31;98683.06;;;19.92;nan
38033;BME280;23841;48.524;1.342;2022-09-09T08:46:11;98683.91;;;19.92;nan
38033;BME280;23841;48.524;1.342;2022-09-09T08:48:51;98700.06;;;19.92;nan
38033;BME280;23841;48.524;1.342;2022-09-09T08:51:20;98723.59;;;20.03;nan
38033;BME280;23841;48.524;1.342;2022-09-09T08:53:49;98688.44;;;19.92;nan
38033;BME280;23841;48.524;1.342;2022-09-09T08:56:18;98722.47;;;19.93;nan
38033;BME280;23841;48.524;1.342;2022-09-09T08:58:49;98689.41;;;19.91;nan
38033;BME280;23841;48.524;1.342;2022-09-09T09:04:07;98699.13;;;19.93;nan
38033;BME280;23841;48.524;1.342;2022-09-09T09:12:22;98716.13;;;19.94;nan
38033;BME280;23841;48.524;1.342;2022-09-09T09:14:48;98698.22;;;19.93;nan
38033;BME280;23841;48.524;1.342;2022-09-09T09:17:17;98705.47;;;19.92;nan
38033;BME280;23841;48.524;1.342;2022-09-09T09:19:45;98718.84;;;19.94;nan
38033;BME280;23841;48.524;1.342;2022-09-09T09:27:34;98726.69;;;19.97;nan
38033;BME280;23841;48.524;1.342;2022-09-09T09:30:05;98725.19;;;19.93;nan
38033;BME280;23841;48.524;1.342;2022-09-09T09:32:39;98719.03;;;19.91;nan
38033;BME280;23841;48.524;1.342;2022-09-09T09:35:11;98738.34;;;19.98;nan
38033;BME280;23841;48.524;1.342;2022-09-09T09:37:37;98753.56;;;19.99;nan
38033;BME280;23841;48.524;1.342;2022-09-09T09:40:16;98785.81;;;20.00;nan
38033;BME280;23841;48.524;1.342;2022-09-09T09:42:51;98751.72;;;19.99;nan
38033;BME280;23841;48.524;1.342;2022-09-09T09:45:28;98757.00;;;20.01;nan
38033;BME280;23841;48.524;1.342;2022-09-09T09:48:02;98756.16;;;20.00;nan
38033;BME280;23841;48.524;1.342;2022-09-09T09:50:29;98773.19;;;20.01;nan
38033;BME280;23841;48.524;1.342;2022-09-09T09:53:05;98762.41;;;20.01;nan
38033;BME280;23841;48.524;1.342;2022-09-09T09:55:33;98787.84;;;19.97;nan
38033;BME280;23841;48.524;1.342;2022-09-09T09:58:02;98748.06;;;20.00;nan
38033;BME280;23841;48.524;1.342;2022-09-09T10:00:28;98744.25;;;19.90;nan
38033;BME280;23841;48.524;1.342;2022-09-09T10:02:53;98754.44;;;19.99;nan
38033;BME280;23841;48.524;1.342;2022-09-09T10:05:35;98747.06;;;20.01;nan
38033;BME280;23841;48.524;1.342;2022-09-09T10:42:54;98812.00;;;20.11;nan
38033;BME280;23841;48.524;1.342;2022-09-09T10:45:30;98774.19;;;20.12;nan
38033;BME280;23841;48.524;1.342;2022-09-09T10:50:53;98783.53;;;20.07;nan
38033;BME280;23841;48.524;1.342;2022-09-09T10:53:41;98779.66;;;20.11;nan
38033;BME280;23841;48.524;1.342;2022-09-09T10:56:16;98774.91;;;20.15;nan
38033;BME280;23841;48.524;1.342;2022-09-09T10:59:10;98836.59;;;20.06;nan
38033;BME280;23841;48.524;1.342;2022-09-09T11:01:43;98775.78;;;20.15;nan
38033;BME280;23841;48.524;1.342;2022-09-09T11:04:16;98887.69;;;19.95;nan
38033;BME280;23841;48.524;1.342;2022-09-09T11:06:47;98771.25;;;20.16;nan
38033;BME280;23841;48.524;1.342;2022-09-09T11:09:19;98766.63;;;20.18;nan
38033;BME280;23841;48.524;1.342;2022-09-09T11:11:57;98838.56;;;20.17;nan
38033;BME280;23841;48.524;1.342;2022-09-09T11:14:30;98785.50;;;20.18;nan
38033;BME280;23841;48.524;1.342;2022-09-09T11:17:02;98765.66;;;20.19;nan
38033;BME280;23841;48.524;1.342;2022-09-09T11:19:43;98769.09;;;20.21;nan
38033;BME280;23841;48.524;1.342;2022-09-09T11:22:35;98774.28;;;20.24;nan
38033;BME280;23841;48.524;1.342;2022-09-09T11:25:15;98741.72;;;20.14;nan
38033;BME280;23841;48.524;1.342;2022-09-09T11:37:07;98764.78;;;20.31;nan
38033;BME280;23841;48.524;1.342;2022-09-09T11:39:50;98757.66;;;20.30;nan
38033;BME280;23841;48.524;1.342;2022-09-09T11:42:22;98802.56;;;20.31;nan
38033;BME280;23841;48.524;1.342;2022-09-09T11:44:49;98785.28;;;20.34;nan
38033;BME280;23841;48.524;1.342;2022-09-09T11:47:30;98792.31;;;20.36;nan
38033;BME280;23841;48.524;1.342;2022-09-09T11:50:09;98783.44;;;20.34;nan
38033;BME280;23841;48.524;1.342;2022-09-09T11:52:37;98774.41;;;20.35;nan
38033;BME280;23841;48.524;1.342;2022-09-09T11:55:28;98842.69;;;-28.89;nan
38033;BME280;23841;48.524;1.342;2022-09-09T11:58:00;98753.56;;;20.37;nan
38033;BME280;23841;48.524;1.342;2022-09-09T12:00:52;98822.84;;;20.24;nan
38033;BME280;23841;48.524;1.342;2022-09-09T12:03:46;98789.16;;;20.42;nan
38033;BME280;23841;48.524;1.342;2022-09-09T12:06:17;98794.69;;;20.41;nan
38033;BME280;23841;48.524;1.342;2022-09-09T12:08:48;98781.06;;;20.42;nan
38033;BME280;23841;48.524;1.342;2022-09-09T12:11:27;98798.00;;;20.44;nan
38033;BME280;23841;48.524;1.342;2022-09-09T12:13:58;98774.72;;;20.43;nan
38033;BME280;23841;48.524;1.342;2022-09-09T12:16:36;98770.84;;;20.48;nan
38033;BME280;23841;48.524;1.342;2022-09-09T12:21:47;98794.13;;;20.49;nan
38033;BME280;23841;48.524;1.342;2022-09-09T12:24:21;98773.41;;;20.49;nan
38033;BME280;23841;48.524;1.342;2022-09-09T12:29:50;98794.03;;;20.50;nan
38033;BME280;23841;48.524;1.342;2022-09-09T12:32:25;98805.69;;;20.51;nan
38033;BME280;23841;48.524;1.342;2022-09-09T12:35:26;98803.84;;;20.51;nan
38033;BME280;23841;48.524;1.342;2022-09-09T12:38:03;98789.59;;;20.49;nan
38033;BME280;23841;48.524;1.342;2022-09-09T12:40:33;98748.38;;;20.47;nan
38033;BME280;23841;48.524;1.342;2022-09-09T12:43:02;98796.06;;;20.46;nan
38033;BME280;23841;48.524;1.342;2022-09-09T12:45:32;98730.25;;;20.23;nan
38033;BME280;23841;48.524;1.342;2022-09-09T12:48:02;98769.53;;;20.40;nan
38033;BME280;23841;48.524;1.342;2022-09-09T12:50:31;98785.72;;;20.53;nan
38033;BME280;23841;48.524;1.342;2022-09-09T12:53:04;98804.72;;;20.52;nan
38033;BME280;23841;48.524;1.342;2022-09-09T12:55:35;98793.81;;;20.53;nan
38033;BME280;23841;48.524;1.342;2022-09-09T12:58:02;98798.25;;;20.54;nan
38033;BME280;23841;48.524;1.342;2022-09-09T13:00:35;98778.59;;;20.52;nan
38033;BME280;23841;48.524;1.342;2022-09-09T13:03:13;98804.50;;;20.55;nan
38033;BME280;23841;48.524;1.342;2022-09-09T13:05:41;98824.34;;;20.54;nan
38033;BME280;23841;48.524;1.342;2022-09-09T13:08:11;98790.03;;;20.56;nan
38033;BME280;23841;48.524;1.342;2022-09-09T13:10:51;98809.13;;;20.53;nan
38033;BME280;23841;48.524;1.342;2022-09-09T13:13:22;98795.44;;;20.56;nan
38033;BME280;23841;48.524;1.342;2022-09-09T13:15:53;98797.59;;;20.51;nan
38033;BME280;23841;48.524;1.342;2022-09-09T13:18:29;98807.09;;;20.69;nan
38033;BME280;23841;48.524;1.342;2022-09-09T13:20:55;98801.59;;;20.45;nan
38033;BME280;23841;48.524;1.342;2022-09-09T13:23:33;98808.81;;;20.57;nan
38033;BME280;23841;48.524;1.342;2022-09-09T13:26:05;98824.00;;;20.58;nan
38033;BME280;23841;48.524;1.342;2022-09-09T13:28:33;98831.25;;;20.58;nan
38033;BME280;23841;48.524;1.342;2022-09-09T13:31:05;98833.94;;;20.58;nan
38033;BME280;23841;48.524;1.342;2022-09-09T13:33:36;98844.63;;;20.59;nan
38033;BME280;23841;48.524;1.342;2022-09-09T13:36:05;98847.44;;;20.58;nan
38033;BME280;23841;48.524;1.342;2022-09-09T13:41:29;98836.66;;;20.58;nan
38033;BME280;23841;48.524;1.342;2022-09-09T13:43:56;98833.94;;;20.58;nan
38033;BME280;23841;48.524;1.342;2022-09-09T13:46:36;98822.59;;;20.53;nan
38033;BME280;23841;48.524;1.342;2022-09-09T13:51:41;98819.91;;;20.53;nan
38033;BME280;23841;48.524;1.342;2022-09-09T13:54:11;98845.69;;;20.57;nan
38033;BME280;23841;48.524;1.342;2022-09-09T13:56:39;98839.34;;;20.58;nan
38033;BME280;23841;48.524;1.342;2022-09-09T13:59:09;98847.66;;;20.55;nan
38033;BME280;23841;48.524;1.342;2022-09-09T14:01:35;98806.88;;;20.46;nan
38033;BME280;23841;48.524;1.342;2022-09-09T14:04:02;98849.59;;;20.53;nan
38033;BME280;23841;48.524;1.342;2022-09-09T14:06:27;98822.53;;;20.54;nan
38033;BME280;23841;48.524;1.342;2022-09-09T14:08:54;98861.66;;;20.47;nan
38033;BME280;23841;48.524;1.342;2022-09-09T14:11:20;98821.31;;;20.58;nan
38033;BME280;23841;48.524;1.342;2022-09-09T14:13:47;98822.88;;;20.75;nan
38033;BME280;23841;48.524;1.342;2022-09-09T14:16:15;98836.00;;;20.93;nan
38033;BME280;23841;48.524;1.342;2022-09-09T14:18:41;98819.47;;;20.97;nan
38033;BME280;23841;48.524;1.342;2022-09-09T14:21:07;98847.72;;;21.18;nan
38033;BME280;23841;48.524;1.342;2022-09-09T14:23:34;98856.88;;;21.28;nan
38033;BME280;23841;48.524;1.342;2022-09-09T14:25:59;98821.44;;;21.33;nan
38033;BME280;23841;48.524;1.342;2022-09-09T14:28:25;98831.03;;;21.37;nan
38033;BME280;23841;48.524;1.342;2022-09-09T14:30:51;98826.56;;;21.48;nan
38033;BME280;23841;48.524;1.342;2022-09-09T14:33:16;98823.63;;;21.52;nan
38033;BME280;23841;48.524;1.342;2022-09-09T14:35:42;98828.59;;;21.58;nan
38033;BME280;23841;48.524;1.342;2022-09-09T14:38:09;98825.56;;;21.62;nan
38033;BME280;23841;48.524;1.342;2022-09-09T14:40:36;98833.38;;;21.41;nan
38033;BME280;23841;48.524;1.342;2022-09-09T14:43:03;98821.09;;;21.37;nan
38033;BME280;23841;48.524;1.342;2022-09-09T14:45:29;98800.84;;;21.19;nan
38033;BME280;23841;48.524;1.342;2022-09-09T14:47:54;98850.19;;;21.21;nan
38033;BME280;23841;48.524;1.342;2022-09-09T14:50:22;98813.50;;;21.05;nan
38033;BME280;23841;48.524;1.342;2022-09-09T14:52:48;98843.63;;;21.12;nan
38033;BME280;23841;48.524;1.342;2022-09-09T14:55:16;98856.47;;;21.08;nan
38033;BME280;23841;48.524;1.342;2022-09-09T14:57:42;98843.97;;;21.07;nan
38033;BME280;23841;48.524;1.342;2022-09-09T15:00:09;98840.50;;;21.05;nan
38033;BME280;23841;48.524;1.342;2022-09-09T15:02:36;98829.63;;;20.94;nan
38033;BME280;23841;48.524;1.342;2022-09-09T15:05:01;98840.75;;;21.02;nan
38033;BME280;23841;48.524;1.342;2022-09-09T15:07:27;98830.16;;;20.99;nan
38033;BME280;23841;48.524;1.342;2022-09-09T15:09:54;98839.22;;;20.98;nan
38033;BME280;23841;48.524;1.342;2022-09-09T15:12:20;98827.69;;;20.96;nan
38033;BME280;23841;48.524;1.342;2022-09-09T15:14:46;98857.59;;;20.93;nan
38033;BME280;23841;48.524;1.342;2022-09-09T15:17:12;98814.41;;;20.93;nan
38033;BME280;23841;48.524;1.342;2022-09-09T15:19:37;98828.00;;;20.91;nan
38033;BME280;23841;48.524;1.342;2022-09-09T15:22:04;98834.28;;;20.92;nan
38033;BME280;23841;48.524;1.342;2022-09-09T15:24:31;98874.00;;;20.90;nan
38033;BME280;23841;48.524;1.342;2022-09-09T15:26:57;98869.66;;;21.00;nan
38033;BME280;23841;48.524;1.342;2022-09-09T15:29:23;98869.47;;;20.90;nan
38033;BME280;23841;48.524;1.342;2022-09-09T15:31:50;98843.59;;;20.88;nan
38033;BME280;23841;48.524;1.342;2022-09-09T15:34:15;98876.06;;;20.86;nan
38033;BME280;23841;48.524;1.342;2022-09-09T15:36:44;98872.38;;;20.87;nan
38033;BME280;23841;48.524;1.342;2022-09-09T15:39:15;98896.69;;;20.74;nan
38033;BME280;23841;48.524;1.342;2022-09-09T15:41:42;98850.91;;;20.86;nan
38033;BME280;23841;48.524;1.342;2022-09-09T15:44:08;98851.03;;;20.84;nan
38033;BME280;23841;48.524;1.342;2022-09-09T15:46:38;98850.16;;;20.84;nan
38033;BME280;23841;48.524;1.342;2022-09-09T15:49:10;98839.47;;;20.82;nan
38033;BME280;23841;48.524;1.342;2022-09-09T15:51:45;98852.88;;;20.84;nan
38033;BME280;23841;48.524;1.342;2022-09-09T15:54:12;98864.97;;;20.78;nan
38033;BME280;23841;48.524;1.342;2022-09-09T15:56:38;98818.66;;;20.71;nan
38033;BME280;23841;48.524;1.342;2022-09-09T15:59:03;98852.22;;;20.80;nan